• Join FlightAware (Why Join?)
  • Login
  • US Flag 
05:39PM EDT


 

Airport Tracker/Info


-or-


 

Live Flight TrackerFlight Track Log ✈ AWE3794 ✈ 17-May-2013 ✈ KCLE - KPHL

Flight Track Log - Related Links

Times and Time Zones

All times are in EDT time to prevent confusion due to time zone crossing. See the AWE3794 flight status page for this flight to view local times or setup timezone preferences in your user account.

Time Position Orientation Groundspeed Altitude Reporting Facility
EDT Latitude Longitude Course Direction KTS MPH feet Rate Location/Type
09:38AM 41.4347 -81.7714 74° East 208 239 3,400  Level Cleveland Center
09:39AM 41.4356 -81.6772 89° East 240 276 5,200 2,160 Climbing Cleveland Center
09:40AM 41.1830 -81.3827 124° Southeast  Level FlightAware Approximate
09:40AM 41.3758 -81.6014 136° Southeast 240 276 7,900  Level Cleveland Center
09:41AM 41.1270 -81.2674 118° Southeast  Level FlightAware Approximate
09:41AM 41.3244 -81.5231 131° Southeast 283 326 10,100  Level Cleveland Center
09:42AM 41.0814 -81.1443 114° Southeast  Level FlightAware Approximate
09:42AM 41.2647 -81.4339 132° Southeast 309 356 12,000  Level Cleveland Center
09:43AM 41.1986 -81.3392 133° Southeast 337 388 13,800 1,740 Climbing Cleveland Center
09:44AM 41.1325 -81.2419 132° Southeast 348 400 15,500 1,620 Climbing Cleveland Center
09:45AM 41.0853 -81.1203 117° Southeast 360 414 17,100 1,380 Climbing Cleveland Center
09:46AM 41.0483 -80.9878 110° East 372 428 18,300 1,200 Climbing Cleveland Center
09:47AM 41.0111 -80.8500 110° East 384 442 19,600 1,200 Climbing Cleveland Center
09:48AM 40.9697 -80.7150 112° Southeast 394 453 20,700 1,140 Climbing Cleveland Center
09:49AM 40.9303 -80.5750 110° East 399 459 21,900 1,080 Climbing Cleveland Center
09:50AM 40.8883 -80.4292 111° Southeast 404 465 22,900 540 Climbing Cleveland Center
09:51AM 40.8403 -80.2758 112° Southeast 414 476 23,000  Climbing Cleveland Center
09:52AM 40.7958 -80.1389 113° Southeast 414 476 23,000  Level Cleveland Center
09:53AM 40.7517 -80.0158 115° Southeast 414 476 23,000  Level Cleveland Center
09:54AM 40.7050 -79.8819 115° Southeast 414 476 23,000  Level Cleveland Center
09:55AM 40.6561 -79.7483 116° Southeast 409 471 23,000  Level Cleveland Center
09:56AM 40.6072 -79.6178 116° Southeast 402 463 23,000  Level Cleveland Center
09:57AM 40.5600 -79.4844 115° Southeast 402 463 23,000  Level Cleveland Center
09:58AM 40.5108 -79.3542 116° Southeast 402 463 23,000  Level Cleveland Center
09:59AM 40.4594 -79.2242 117° Southeast 402 463 23,000  Level Cleveland Center
10:00AM 40.4283 -79.0831 106° East 402 463 23,000  Level Cleveland Center
10:01AM 40.4219 -78.9194 93° East 417 480 23,000  Level Cleveland Center
10:02AM 40.4131 -78.7506 94° East 437 503 23,000  Level Cleveland Center
10:03AM 40.3997 -78.5736 96° East 466 536 23,000  Level Cleveland Center
10:04AM 40.3897 -78.3778 94° East 488 562 23,000  Level Cleveland Center
10:05AM 40.3778 -78.2008 95° East 493 567 23,000  Level Cleveland Center
10:07AM 40.3608 -77.9381 95° East 519 597 23,000  Level New York Center
10:08AM 40.3489 -77.7544 95° East 513 590 23,000 -480 Level New York Center
10:09AM 40.3394 -77.5953 94° East 478 550 22,100 -1,200 Descending New York Center
10:10AM 40.3275 -77.4389 96° East 447 514 20,700 -1,380 Descending New York Center
10:11AM 40.3172 -77.2881 95° East 429 494 19,400 -1,380 Descending New York Center
10:12AM 40.3050 -77.1292 96° East 406 467 18,000 -1,380 Descending New York Center
10:13AM 40.2811 -76.9908 103° East 390 449 16,700 -1,080 Descending New York Center
10:14AM 40.2539 -76.8686 106° East 390 449 15,900 -960 Descending New York Center
10:15AM 40.2233 -76.7356 107° East 385 443 14,900 -1,020 Descending New York Center
10:16AM 40.1903 -76.6022 108° East 385 443 13,900 -1,080 Descending New York Center
10:17AM 40.1597 -76.4583 105° East 378 435 12,800 -960 Descending New York Center
10:18AM 40.1336 -76.3531 108° East 357 411 12,100 -840 Descending New York Center
10:19AM 40.1189 -76.2242 98° East 346 398 11,200 -1,200 Descending New York Center
10:20AM 40.1114 -76.1122 95° East 333 383 9,800 -1,620 Descending New York Center
10:21AM 40.1017 -76.0031 97° East 311 358 8,000 -900 Descending New York Center
10:22AM 40.0939 -75.8967 95° East 301 346 8,000  Level New York Center
10:23AM 40.0967 -75.7800 88° East 295 339 8,000 -360 Level New York Center
10:24AM 40.1056 -75.6722 84° East 290 334 7,400 -840 Descending New York Center
10:25AM 40.1119 -75.5639 86° East 290 334 6,400 -720 Descending New York Center
10:26AM 40.1183 -75.4558 86° East 290 334 6,000 -240 Descending New York Center
10:27AM 40.1225 -75.3503 87° East 290 334 6,000  Level New York Center
10:28AM 40.1000 -75.2500 106° East 272 313 6,000  Level Philadelphia TRACON
10:29AM 40.0500 -75.2000 143° Southeast 244 281 6,000  Level Philadelphia TRACON
10:30AM 39.9833 -75.1667 159° South 239 275 6,000 -120 Level Philadelphia TRACON
10:31AM 39.9833 -75.1000 90° East 183 211 5,800 -540 Descending Philadelphia TRACON
10:32AM 40.0000 -75.0333 72° East 195 224 5,000 -420 Descending Philadelphia TRACON
10:33AM 39.9833 -74.9833 113° Southeast 208 239 5,000 -540 Level Philadelphia TRACON
10:34AM 39.9333 -75.0000 194° South 174 200 4,000 -900 Descending Philadelphia TRACON
10:35AM 39.9167 -75.0333 237° Southwest 177 204 3,200 -840 Descending Philadelphia TRACON